BHK weather

Bahía de Kino Airport
Bahia de Kino, Sonora, Mexico

Public forecast

Using degrees Celsius for public forecast. Weather courtesy of forecast.io.

METAR (pilot weather report)

Closest report is General Ignacio P. Garcia International Airport, 50.8 nm (94.1 km) ENE. Retrieved 2019/05/21 16:40 UTC (9 minutes ago):

MMHO 211640Z 00000KT 10SM SKC 25/01 A2989 RMK HZY

TAF (pilot weather forecast)

Forecast is more than 6 hours old.

Closest forecast is General Ignacio P. Garcia International Airport, 50.8 nm (94.1 km) ENE. Retrieved 2019/05/21 06:35 UTC (10 hours ago):

TAF MMHO 210428Z 2106/2206 26005KT P6SM SCT200 FM211900 25015KT P6SM SCT200 FM220400 24005KT P6SM SCT200